Terminal Aerodrome Forecast
Issued by NWS

Current Version | Previous Version | Text Only | Print | Product List | Glossary Off
Versions: 1 2 3 4 5 6 7 8 9 10 11 12 13 14 15 16 17 18 19 20 21 22 23 24 25 26 27 28 29 30 31 32 33 34 35 36 37 38 39 40 41 42 43 44 45 46 47

000
FTUS41 KRNK 280457 AAA
TAFLWB
TAF AMD
KLWB 280457Z 2805/2824 00000KT P6SM -SHRA SCT020 BKN060
      TEMPO 2805/2807 2SM SHRA BR OVC020
     FM281200 VRB03KT P6SM OVC045
     FM281500 22004KT 6SM -SHRA OVC035
     FM281900 26010KT P6SM OVC030=

USA.gov is the U.S. government's official web portal to all federal, state and local government web resources and services.